Time;durP1;ratioP1;P1;durP2;ratioP2;P2;SDS_P1;SDS_P2;PMS_P1;PMS_P2;Temp;Humidity;BMP_temperature;BMP_pressure;BME280_temperature;BME280_humidity;BME280_pressure;Samples;Min_cycle;Max_cycle;Signal;HPM_P1;HPM_P2
2022/07/07 00:01:01;;;;;;;2.85;1.90;;;;;;;12.91;70.09;99076.16;4137105;28;20128;-71
2022/07/07 00:03:02;;;;;;;1.75;1.50;;;;;;;12.91;70.20;99087.28;4137629;28;20510;-71
2022/07/07 00:05:03;;;;;;;6.70;1.77;;;;;;;12.90;71.08;99080.09;4137518;28;20414;-71
2022/07/07 00:07:03;;;;;;;2.10;1.60;;;;;;;12.90;71.05;99080.09;4137542;28;20369;-71
2022/07/07 00:09:04;;;;;;;4.05;1.70;;;;;;;12.91;69.67;99074.19;4136210;28;20212;-71
2022/07/07 00:11:04;;;;;;;2.33;1.80;;;;;;;12.96;71.30;99075.81;4136465;28;20172;-71
2022/07/07 00:13:05;;;;;;;3.15;1.70;;;;;;;12.97;70.66;99077.41;4136476;28;20061;-71
2022/07/07 00:15:06;;;;;;;3.45;1.45;;;;;;;12.96;71.57;99066.69;4138174;28;20109;-71
2022/07/07 00:17:06;;;;;;;2.85;1.50;;;;;;;12.96;72.09;99063.91;4136128;28;20030;-71
2022/07/07 00:19:07;;;;;;;3.88;1.50;;;;;;;12.96;72.04;99061.13;4137349;28;20632;-71
2022/07/07 00:21:07;;;;;;;1.92;1.60;;;;;;;13.00;70.45;99067.53;4135320;28;20516;-71
2022/07/07 00:23:08;;;;;;;4.03;1.73;;;;;;;13.04;70.41;99055.25;4135982;28;20383;-71
2022/07/07 00:25:08;;;;;;;1.95;1.58;;;;;;;13.05;71.13;99062.41;4137086;28;20053;-71
2022/07/07 00:27:08;;;;;;;2.72;1.60;;;;;;;13.04;72.24;99060.03;4137023;28;20073;-71
2022/07/07 00:29:09;;;;;;;1.85;1.50;;;;;;;13.03;74.15;99052.88;4136303;28;20359;-71
2022/07/07 00:31:09;;;;;;;2.72;2.00;;;;;;;13.00;72.95;99054.44;4134949;28;20089;-71
2022/07/07 00:33:10;;;;;;;3.17;2.10;;;;;;;13.01;73.87;99044.94;4137164;28;20038;-71
2022/07/07 00:35:10;;;;;;;3.47;1.80;;;;;;;13.00;74.05;99050.88;4137443;28;20462;-71
2022/07/07 00:37:10;;;;;;;3.58;1.60;;;;;;;13.04;71.72;99052.50;4135361;28;20041;-71
2022/07/07 00:39:12;;;;;;;2.00;1.70;;;;;;;13.04;72.67;99041.38;4136013;28;20120;-71
2022/07/07 00:41:12;;;;;;;4.28;1.60;;;;;;;13.09;72.19;99040.25;4137555;28;20029;-71
2022/07/07 00:43:12;;;;;;;1.88;1.63;;;;;;;13.12;72.45;99037.50;4136973;28;20470;-71
2022/07/07 00:45:13;;;;;;;5.20;1.83;;;;;;;13.11;73.85;99027.56;4136365;28;20032;-71
2022/07/07 00:47:14;;;;;;;2.75;1.90;;;;;;;13.11;74.66;99021.22;4135575;28;20400;-71
2022/07/07 00:49:17;;;;;;;2.97;2.10;;;;;;;13.07;75.52;99026.72;4136656;28;20227;-71
2022/07/07 00:51:18;;;;;;;2.92;1.85;;;;;;;13.00;75.95;99023.09;4136122;28;20045;-71
2022/07/07 00:53:18;;;;;;;2.22;1.85;;;;;;;13.00;74.22;99026.66;4136225;28;20061;-71
2022/07/07 00:55:19;;;;;;;3.70;1.52;;;;;;;12.98;75.05;99026.22;4135644;28;20104;-71
2022/07/07 00:57:19;;;;;;;3.95;2.03;;;;;;;13.02;74.45;99031.84;4136005;28;20367;-71
2022/07/07 00:59:20;;;;;;;2.95;1.90;;;;;;;13.01;74.25;99030.25;4136333;28;20025;-71
2022/07/07 01:01:20;;;;;;;2.40;1.60;;;;;;;13.04;73.84;99023.91;4136536;28;20072;-71
2022/07/07 01:03:20;;;;;;;3.08;1.77;;;;;;;13.05;72.76;99022.72;4135668;28;20755;-71
2022/07/07 01:05:23;;;;;;;3.50;1.95;;;;;;;13.07;73.78;99026.72;4135294;28;20038;-71
2022/07/07 01:07:23;;;;;;;3.50;2.00;;;;;;;13.07;73.54;99014.81;4134609;28;20048;-71
2022/07/07 01:09:24;;;;;;;2.83;1.38;;;;;;;13.10;74.53;99016.84;4135420;28;20064;-71
2022/07/07 01:11:24;;;;;;;1.92;1.60;;;;;;;13.09;74.33;99012.47;4136730;28;20044;-71
2022/07/07 01:13:25;;;;;;;4.53;1.67;;;;;;;13.08;74.30;99013.66;4135587;28;20056;-71
2022/07/07 01:15:25;;;;;;;2.55;1.73;;;;;;;13.11;74.13;99012.88;4134867;28;20604;-71
2022/07/07 01:17:25;;;;;;;2.00;1.38;;;;;;;13.08;74.21;99014.44;4136488;28;20033;-71
2022/07/07 01:19:26;;;;;;;3.47;1.90;;;;;;;13.08;73.31;99003.34;4134197;28;20348;-71
2022/07/07 01:21:28;;;;;;;2.30;1.85;;;;;;;13.07;74.84;99003.69;4134663;28;20367;-71
2022/07/07 01:23:28;;;;;;;2.50;1.52;;;;;;;13.06;75.53;99004.88;4133431;28;20042;-71
2022/07/07 01:25:29;;;;;;;5.53;1.90;;;;;;;13.06;75.09;99005.66;4137089;28;20180;-71
2022/07/07 01:27:29;;;;;;;6.57;2.33;;;;;;;13.07;75.19;99000.91;4133973;28;20494;-71
2022/07/07 01:29:35;;;;;;;3.53;2.72;;;;;;;13.05;75.96;99000.50;4134523;28;20447;-71
2022/07/07 01:31:36;;;;;;;5.22;2.05;;;;;;;13.05;74.99;99000.50;4135478;28;20030;-71
2022/07/07 01:33:36;;;;;;;5.47;2.00;;;;;;;13.09;74.34;98990.25;4134765;28;20057;-71
2022/07/07 01:35:36;;;;;;;6.82;2.20;;;;;;;13.16;72.88;98980.00;4135946;28;20057;-71
2022/07/07 01:37:37;;;;;;;5.22;1.83;;;;;;;13.22;73.37;98977.69;4134865;28;20030;-71
2022/07/07 01:39:39;;;;;;;2.85;2.30;;;;;;;13.27;75.46;98988.44;4136478;28;20356;-70
2022/07/07 01:41:39;;;;;;;4.30;1.70;;;;;;;13.27;73.66;98968.19;4136757;28;20349;-71
2022/07/07 01:43:39;;;;;;;3.40;2.03;;;;;;;13.30;74.21;98968.22;4134641;28;20076;-71
2022/07/07 01:45:40;;;;;;;5.97;1.75;;;;;;;13.33;73.17;98959.13;4135981;28;21068;-71
2022/07/07 01:47:40;;;;;;;1.70;1.60;;;;;;;13.41;72.33;98966.34;4136562;28;20577;-71
2022/07/07 01:49:40;;;;;;;4.30;1.90;;;;;;;13.43;72.15;98960.41;4134671;28;20544;-71
2022/07/07 01:51:41;;;;;;;1.98;1.58;;;;;;;13.48;71.65;98957.25;4135779;28;20045;-71
2022/07/07 01:53:41;;;;;;;1.83;1.48;;;;;;;13.54;70.89;98957.69;4136150;28;20120;-71
2022/07/07 01:55:42;;;;;;;2.00;1.52;;;;;;;13.58;70.90;98953.75;4136669;28;20052;-71
2022/07/07 01:57:42;;;;;;;2.88;1.60;;;;;;;13.63;70.53;98950.59;4136545;28;20033;-71
2022/07/07 01:59:42;;;;;;;2.03;1.73;;;;;;;13.63;71.80;98949.81;4134937;28;20210;-71
2022/07/07 02:01:43;;;;;;;2.60;1.88;;;;;;;13.60;72.95;98948.59;4137273;28;20022;-71
2022/07/07 02:03:43;;;;;;;2.17;1.80;;;;;;;13.56;72.60;98946.97;4138649;28;20065;-70
2022/07/07 02:05:44;;;;;;;2.65;1.80;;;;;;;13.56;72.40;98941.41;4139185;28;20482;-71
2022/07/07 02:07:47;;;;;;;6.40;2.33;;;;;;;13.53;74.15;98948.56;4139245;28;20466;-71
2022/07/07 02:09:47;;;;;;;2.03;1.77;;;;;;;13.53;73.45;98940.22;4138087;28;20173;-71
2022/07/07 02:11:48;;;;;;;2.40;1.75;;;;;;;13.53;72.75;98939.41;4139586;28;20113;-71
2022/07/07 02:13:50;;;;;;;2.58;1.80;;;;;;;13.54;70.88;98938.22;4138433;28;20395;-71
2022/07/07 02:15:50;;;;;;;2.58;1.80;;;;;;;13.54;73.10;98932.66;4138298;28;20453;-71
2022/07/07 02:17:50;;;;;;;3.13;1.70;;;;;;;13.50;72.99;98938.22;4137439;28;20030;-71
2022/07/07 02:19:51;;;;;;;1.92;1.70;;;;;;;13.53;70.71;98931.06;4137775;28;20084;-71
2022/07/07 02:21:51;;;;;;;2.10;1.65;;;;;;;13.53;71.48;98931.06;4139701;28;20482;-71
2022/07/07 02:23:53;;;;;;;2.00;1.70;;;;;;;13.57;70.06;98938.28;4138917;28;20069;-71
2022/07/07 02:25:54;;;;;;;1.83;1.65;;;;;;;13.57;70.00;98929.94;4139707;28;20369;-71
2022/07/07 02:27:54;;;;;;;2.00;1.50;;;;;;;13.61;69.97;98930.75;4138611;28;20033;-71
2022/07/07 02:29:54;;;;;;;2.08;1.80;;;;;;;13.61;71.01;98930.75;4138278;28;20492;-71
2022/07/07 02:31:55;;;;;;;2.90;1.70;;;;;;;13.60;71.32;98931.13;4138732;28;20112;-71
2022/07/07 02:33:55;;;;;;;1.85;1.60;;;;;;;13.59;71.19;98926.75;4137497;28;20030;-71
2022/07/07 02:35:56;;;;;;;2.25;1.88;;;;;;;13.56;70.59;98921.94;4138492;28;20057;-71
2022/07/07 02:37:56;;;;;;;2.65;1.70;;;;;;;13.56;70.31;98927.50;4138996;28;20112;-71
2022/07/07 02:39:56;;;;;;;3.63;2.00;;;;;;;13.57;70.36;98931.88;4138704;28;20145;-71
2022/07/07 02:41:57;;;;;;;5.80;2.03;;;;;;;13.54;71.01;98933.47;4138426;28;20103;-71
2022/07/07 02:43:57;;;;;;;2.42;1.92;;;;;;;13.53;70.81;98931.88;4137001;28;20029;-71
2022/07/07 02:45:57;;;;;;;3.40;1.90;;;;;;;13.56;69.79;98935.84;4138728;28;20022;-70
2022/07/07 02:47:58;;;;;;;4.05;2.13;;;;;;;13.53;71.46;98922.75;4138378;28;20030;-70
2022/07/07 02:49:58;;;;;;;3.67;2.22;;;;;;;13.57;70.47;98929.09;4138396;28;20408;-70
2022/07/07 02:51:59;;;;;;;3.45;2.10;;;;;;;13.57;71.30;98924.38;4138645;28;20093;-70
2022/07/07 02:53:59;;;;;;;5.65;2.63;;;;;;;13.57;71.59;98918.81;4135428;28;20038;-70
2022/07/07 02:56:00;;;;;;;4.05;2.65;;;;;;;13.56;71.97;98922.75;4139566;28;20424;-70
2022/07/07 02:58:01;;;;;;;6.55;2.90;;;;;;;13.53;72.41;98922.75;4137481;28;20065;-70
2022/07/07 03:00:03;;;;;;;4.72;3.17;;;;;;;13.49;73.36;98906.84;4138206;28;20065;-70
2022/07/07 03:02:03;;;;;;;4.60;2.92;;;;;;;13.49;73.92;98923.53;4136838;28;20639;-70
2022/07/07 03:04:04;;;;;;;4.53;2.72;;;;;;;13.46;74.82;98915.13;4136548;28;20081;-70
2022/07/07 03:06:04;;;;;;;3.72;3.13;;;;;;;13.44;74.80;98920.28;4138324;28;20045;-70
2022/07/07 03:08:05;;;;;;;7.60;3.30;;;;;;;13.40;76.15;98914.69;4137589;28;20033;-70
2022/07/07 03:10:06;;;;;;;7.47;2.90;;;;;;;13.38;76.13;98914.28;4136743;28;20045;-70
2022/07/07 03:12:07;;;;;;;6.07;3.47;;;;;;;13.39;75.89;98906.75;4135622;28;20087;-70
2022/07/07 03:14:07;;;;;;;3.67;3.20;;;;;;;13.36;77.38;98913.09;4137455;28;20088;-70
2022/07/07 03:16:07;;;;;;;3.80;3.30;;;;;;;13.37;75.75;98909.91;4137262;28;20377;-71
2022/07/07 03:18:08;;;;;;;6.25;3.28;;;;;;;13.41;75.04;98907.97;4132996;28;20405;-70
2022/07/07 03:20:10;;;;;;;3.53;3.10;;;;;;;13.41;75.67;98910.75;4134504;28;20700;-70
2022/07/07 03:22:11;;;;;;;5.28;3.30;;;;;;;13.42;76.46;98911.56;4133866;28;20382;-70
2022/07/07 03:24:11;;;;;;;3.75;3.40;;;;;;;13.44;77.37;98909.97;4135172;28;20054;-70
2022/07/07 03:26:11;;;;;;;9.15;3.80;;;;;;;13.43;76.66;98911.16;4134895;28;20065;-70
2022/07/07 03:28:11;;;;;;;5.05;3.60;;;;;;;13.46;77.71;98912.38;4136284;28;20041;-70
2022/07/07 03:30:12;;;;;;;7.97;4.25;;;;;;;13.43;78.00;98913.16;4136308;28;20593;-70
2022/07/07 03:32:12;;;;;;;5.45;4.10;;;;;;;13.42;78.31;98917.13;4134954;28;20125;-70
2022/07/07 03:34:13;;;;;;;8.35;3.63;;;;;;;13.38;79.39;98919.06;4136944;28;20437;-70
2022/07/07 03:36:13;;;;;;;3.50;3.20;;;;;;;13.39;78.16;98910.31;4133703;28;20494;-70
2022/07/07 03:38:13;;;;;;;5.00;3.97;;;;;;;13.39;81.24;98909.53;4134921;28;20705;-70
2022/07/07 03:40:14;;;;;;;7.43;4.10;;;;;;;13.35;80.61;98895.63;4135923;28;20540;-70
2022/07/07 03:42:14;;;;;;;7.57;3.63;;;;;;;13.37;80.36;98903.56;4135854;28;20293;-70
2022/07/07 03:44:14;;;;;;;4.88;3.53;;;;;;;13.37;79.73;98892.44;4134865;28;20073;-70
2022/07/07 03:46:15;;;;;;;4.10;3.70;;;;;;;13.38;79.85;98892.06;4135643;28;20552;-70
2022/07/07 03:48:15;;;;;;;6.38;4.10;;;;;;;13.39;80.79;98888.09;4134821;28;20166;-70
2022/07/07 03:50:15;;;;;;;5.15;3.83;;;;;;;13.38;80.71;98882.91;4134840;28;20370;-70
2022/07/07 03:52:16;;;;;;;8.50;4.30;;;;;;;13.39;81.12;98887.28;4136137;28;20057;-70
2022/07/07 03:54:17;;;;;;;6.60;4.60;;;;;;;13.40;80.64;98886.91;4137559;28;20366;-70
2022/07/07 03:56:17;;;;;;;5.75;4.40;;;;;;;13.42;80.30;98879.00;4135368;28;20034;-70
2022/07/07 03:58:18;;;;;;;8.20;3.85;;;;;;;13.44;80.94;98878.59;4135603;28;20609;-70
2022/07/07 04:00:18;;;;;;;3.90;3.58;;;;;;;13.42;81.16;98886.53;4134083;28;20033;-70
2022/07/07 04:02:19;;;;;;;4.72;4.20;;;;;;;13.39;82.82;98876.19;4134094;28;20018;-70
2022/07/07 04:04:19;;;;;;;5.65;4.38;;;;;;;13.37;81.94;98882.13;4134936;28;20030;-70
2022/07/07 04:06:19;;;;;;;4.63;4.10;;;;;;;13.34;81.92;98874.56;4136255;28;20045;-71
2022/07/07 04:08:20;;;;;;;4.28;3.88;;;;;;;13.35;81.37;98867.03;4133951;28;20430;-71
2022/07/07 04:10:20;;;;;;;7.43;4.05;;;;;;;13.35;81.32;98861.47;4135294;28;20042;-71
2022/07/07 04:12:20;;;;;;;4.57;4.18;;;;;;;13.37;82.09;98871.00;4134118;28;20076;-71
2022/07/07 04:14:21;;;;;;;5.15;4.40;;;;;;;13.35;82.88;98867.81;4137591;28;20062;-72
2022/07/07 04:16:21;;;;;;;5.70;4.35;;;;;;;13.30;83.38;98862.63;4136989;28;20033;-70
2022/07/07 04:18:22;;;;;;;5.78;4.50;;;;;;;13.26;84.53;98856.25;4136541;28;20026;-70
2022/07/07 04:20:23;;;;;;;6.65;4.43;;;;;;;13.24;84.03;98858.63;4135808;28;20080;-71
2022/07/07 04:22:23;;;;;;;7.18;4.43;;;;;;;13.25;84.12;98862.22;4136371;28;20042;-71
2022/07/07 04:24:24;;;;;;;5.32;4.43;;;;;;;13.21;84.43;98862.16;4136003;28;20343;-71
2022/07/07 04:26:25;;;;;;;5.10;4.60;;;;;;;13.19;84.86;98850.63;4136737;28;20198;-71
2022/07/07 04:28:25;;;;;;;5.45;4.20;;;;;;;13.25;82.09;98857.44;4135376;28;20362;-71
2022/07/07 04:30:25;;;;;;;6.80;5.05;;;;;;;13.26;84.55;98859.03;4137577;28;20448;-71
2022/07/07 04:32:26;;;;;;;5.90;5.28;;;;;;;13.21;85.46;98857.41;4136627;28;20030;-71
2022/07/07 04:34:26;;;;;;;5.00;4.50;;;;;;;13.18;85.45;98858.16;4136511;28;20058;-71
2022/07/07 04:36:26;;;;;;;5.28;4.78;;;;;;;13.18;85.56;98851.81;4136235;28;20165;-71
2022/07/07 04:38:27;;;;;;;5.93;4.80;;;;;;;13.16;86.19;98848.63;4134613;28;20034;-70
2022/07/07 04:40:27;;;;;;;6.03;5.40;;;;;;;13.17;86.08;98847.44;4136935;28;20057;-71
2022/07/07 04:42:27;;;;;;;7.28;6.03;;;;;;;13.25;86.68;98842.75;4137574;28;20061;-71
2022/07/07 04:44:28;;;;;;;6.35;5.53;;;;;;;13.20;87.48;98839.16;4135267;28;20505;-71
2022/07/07 04:46:28;;;;;;;6.00;5.40;;;;;;;13.22;88.36;98833.19;4135914;28;20121;-71
2022/07/07 04:48:28;;;;;;;7.43;5.90;;;;;;;13.19;87.23;98832.00;4135625;28;20409;-71
2022/07/07 04:50:29;;;;;;;6.55;5.88;;;;;;;13.13;87.77;98818.81;4137241;28;20030;-71
2022/07/07 04:52:29;;;;;;;7.57;6.13;;;;;;;13.06;90.76;98808.44;4136479;28;20026;-71
2022/07/07 04:54:30;;;;;;;9.68;5.65;;;;;;;13.05;89.71;98808.84;4135213;28;20390;-71
2022/07/07 04:56:30;;;;;;;9.40;5.97;;;;;;;13.07;89.30;98818.38;4136729;28;20025;-71
2022/07/07 04:58:30;;;;;;;7.93;6.38;;;;;;;13.06;89.77;98807.66;4136021;28;20773;-71
2022/07/07 05:00:31;;;;;;;6.88;5.38;;;;;;;13.08;88.48;98806.09;4136336;28;20053;-71
2022/07/07 05:02:31;;;;;;;7.78;6.07;;;;;;;13.12;89.19;98811.66;4136503;28;20045;-71
2022/07/07 05:04:32;;;;;;;6.60;6.00;;;;;;;13.10;90.14;98814.84;4137671;28;20498;-71
2022/07/07 05:06:32;;;;;;;7.43;6.05;;;;;;;13.10;90.91;98817.63;4136975;28;20049;-70
2022/07/07 05:08:33;;;;;;;7.30;6.60;;;;;;;13.11;91.18;98822.00;4137119;28;20186;-71
2022/07/07 05:10:33;;;;;;;8.52;6.63;;;;;;;13.10;92.07;98825.97;4136765;28;20034;-71
2022/07/07 05:12:34;;;;;;;6.82;5.78;;;;;;;13.12;91.07;98825.56;4135526;28;20030;-71
2022/07/07 05:14:34;;;;;;;8.30;6.78;;;;;;;13.19;90.98;98822.84;4136668;28;20346;-71
2022/07/07 05:16:35;;;;;;;11.32;6.57;;;;;;;13.19;89.89;98825.63;4136228;28;20033;-71
2022/07/07 05:18:35;;;;;;;7.00;6.13;;;;;;;13.20;88.53;98822.47;4134780;28;20030;-71
2022/07/07 05:20:35;;;;;;;10.27;7.03;;;;;;;13.25;88.83;98831.66;4136400;28;20033;-71
2022/07/07 05:22:36;;;;;;;8.70;7.15;;;;;;;13.27;89.31;98823.72;4135879;28;20516;-71
2022/07/07 05:24:36;;;;;;;7.00;5.82;;;;;;;13.31;88.29;98824.50;4134979;28;20044;-71
2022/07/07 05:26:37;;;;;;;11.52;7.30;;;;;;;13.34;89.99;98830.13;4096431;28;20061;-71
2022/07/07 05:28:41;;;;;;;7.50;6.80;;;;;;;13.34;90.61;98832.09;4120450;28;20056;-71
2022/07/07 05:30:41;;;;;;;9.23;7.38;;;;;;;13.29;92.31;98833.25;4135985;28;20044;-71
2022/07/07 05:32:42;;;;;;;9.52;7.82;;;;;;;13.36;92.66;98838.84;4136410;28;20026;-71
2022/07/07 05:34:42;;;;;;;10.38;7.40;;;;;;;13.27;93.15;98838.41;4133580;28;20108;-70
2022/07/07 05:36:42;;;;;;;8.50;7.03;;;;;;;13.28;92.58;98839.19;4136094;28;20256;-71
2022/07/07 05:38:45;;;;;;;8.40;7.10;;;;;;;13.27;92.15;98834.81;4136952;28;20025;-71
2022/07/07 05:40:45;;;;;;;;;;;;;;;13.24;92.78;98830.84;4139691;28;20034;-71
2022/07/07 05:42:45;;;;;;;9.70;7.00;;;;;;;13.16;94.06;98832.75;4139424;28;20342;-71
2022/07/07 05:44:46;;;;;;;8.57;6.45;;;;;;;13.22;91.95;98833.19;4139025;28;20305;-71
2022/07/07 05:46:46;;;;;;;7.45;6.57;;;;;;;13.27;92.05;98838.41;4140132;28;20029;-71
2022/07/07 05:48:46;;;;;;;12.50;7.50;;;;;;;13.31;91.80;98827.28;4138883;28;20026;-71
2022/07/07 05:50:47;;;;;;;8.48;6.05;;;;;;;13.39;89.20;98824.16;4139345;28;20754;-71
2022/07/07 05:52:47;;;;;;;9.00;6.30;;;;;;;13.44;90.22;98820.25;4139694;28;20116;-71
2022/07/07 05:54:47;;;;;;;8.57;6.43;;;;;;;13.45;89.19;98814.28;4140048;28;20115;-71
2022/07/07 05:56:48;;;;;;;16.92;7.68;;;;;;;13.44;91.06;98812.69;4138592;28;20030;-71
2022/07/07 05:58:48;;;;;;;8.27;7.05;;;;;;;13.44;91.06;98809.13;4138974;28;20273;-71
2022/07/07 06:00:49;;;;;;;9.10;6.82;;;;;;;13.43;90.74;98807.53;4139382;28;20120;-71
2022/07/07 06:02:49;;;;;;;9.05;7.07;;;;;;;13.45;91.71;98816.28;4138925;28;20057;-71
2022/07/07 06:04:50;;;;;;;8.70;6.95;;;;;;;13.47;91.60;98814.69;4139514;28;20505;-71
2022/07/07 06:06:50;;;;;;;9.82;6.35;;;;;;;13.46;92.26;98817.84;4140252;28;20040;-71
2022/07/07 06:08:51;;;;;;;8.13;6.20;;;;;;;13.41;92.78;98810.69;4137233;28;20029;-71
2022/07/07 06:10:51;;;;;;;8.40;6.68;;;;;;;13.45;91.89;98813.50;4139709;28;20440;-71
2022/07/07 06:12:52;;;;;;;10.10;7.25;;;;;;;13.44;91.96;98807.13;4138963;28;20033;-71
2022/07/07 06:14:52;;;;;;;9.43;7.18;;;;;;;13.47;91.54;98819.44;4139415;28;20909;-71
2022/07/07 06:16:53;;;;;;;7.70;6.85;;;;;;;13.51;90.93;98822.25;4138842;28;20447;-71
2022/07/07 06:18:53;;;;;;;8.38;7.60;;;;;;;13.54;90.27;98813.13;4139168;28;20026;-71
2022/07/07 06:20:54;;;;;;;9.90;8.20;;;;;;;13.63;89.59;98813.56;4139567;28;20037;-71
2022/07/07 06:22:54;;;;;;;8.73;6.97;;;;;;;13.58;90.06;98809.19;4138784;28;20148;-71
2022/07/07 06:24:55;;;;;;;7.07;6.25;;;;;;;13.58;90.76;98811.19;4139472;28;20342;-71
2022/07/07 06:26:55;;;;;;;7.32;6.63;;;;;;;13.60;89.82;98812.38;4139189;28;20497;-71
2022/07/07 06:28:56;;;;;;;7.72;7.03;;;;;;;13.57;91.33;98806.78;4137968;28;20034;-71
2022/07/07 06:30:56;;;;;;;10.82;6.95;;;;;;;13.56;91.58;98803.22;4139416;28;20074;-71
2022/07/07 06:32:56;;;;;;;9.02;7.30;;;;;;;13.51;92.88;98802.81;4137851;28;20079;-71
2022/07/07 06:34:57;;;;;;;6.88;6.15;;;;;;;13.51;91.55;98800.03;4137603;28;20414;-71
2022/07/07 06:36:57;;;;;;;6.32;5.72;;;;;;;13.51;91.80;98791.69;4138001;28;20032;-71
2022/07/07 06:38:58;;;;;;;8.32;6.63;;;;;;;13.51;91.74;98794.47;4137504;28;20116;-71
2022/07/07 06:40:58;;;;;;;7.40;6.13;;;;;;;13.52;91.91;98793.28;4138044;28;20034;-71
2022/07/07 06:42:59;;;;;;;8.50;6.45;;;;;;;13.56;91.46;98802.41;4137253;28;20034;-71
2022/07/07 06:44:59;;;;;;;7.55;6.75;;;;;;;13.58;90.97;98786.97;4137520;28;20034;-71
2022/07/07 06:47:00;;;;;;;7.15;6.40;;;;;;;13.58;90.89;98786.16;4136999;28;20120;-70
2022/07/07 06:49:00;;;;;;;6.72;6.07;;;;;;;13.57;90.33;98795.66;4137675;28;20041;-71
2022/07/07 06:51:01;;;;;;;6.95;5.70;;;;;;;13.55;90.36;98792.50;4137932;28;20034;-71
2022/07/07 06:53:01;;;;;;;8.57;6.35;;;;;;;13.58;90.81;98791.72;4137895;28;20390;-71
2022/07/07 06:55:02;;;;;;;8.50;6.28;;;;;;;13.64;90.30;98792.91;4137497;28;20040;-71
2022/07/07 06:57:03;;;;;;;8.77;6.28;;;;;;;13.65;90.24;98800.06;4138336;28;20097;-71
2022/07/07 06:59:03;;;;;;;6.38;5.78;;;;;;;13.65;91.01;98797.28;4137499;28;20049;-71
2022/07/07 07:01:04;;;;;;;8.23;6.05;;;;;;;13.65;90.65;98792.56;4137225;28;20040;-71
2022/07/07 07:03:05;;;;;;;7.00;6.10;;;;;;;13.73;89.87;98799.72;4137252;28;20273;-70
2022/07/07 07:05:06;;;;;;;6.25;5.55;;;;;;;13.74;90.64;98798.53;4137845;28;20188;-71
2022/07/07 07:07:06;;;;;;;7.07;5.45;;;;;;;13.81;90.18;98799.75;4136328;28;20158;-71
2022/07/07 07:09:07;;;;;;;9.30;6.13;;;;;;;13.75;90.47;98802.91;4137701;28;20037;-71
2022/07/07 07:11:07;;;;;;;7.18;5.65;;;;;;;13.75;91.59;98807.69;4137705;28;20153;-71
2022/07/07 07:13:08;;;;;;;6.30;5.70;;;;;;;13.72;91.47;98806.47;4137584;28;20076;-71
2022/07/07 07:15:10;;;;;;;6.32;5.05;;;;;;;13.72;92.18;98803.69;4137948;28;20033;-71
2022/07/07 07:17:10;;;;;;;7.68;5.18;;;;;;;13.70;92.38;98797.72;4137776;28;20034;-71
2022/07/07 07:19:11;;;;;;;6.78;6.07;;;;;;;13.75;93.04;98802.13;4136945;28;20447;-71
2022/07/07 07:21:11;;;;;;;7.18;5.57;;;;;;;13.75;93.07;98800.13;4138046;28;20038;-71
2022/07/07 07:23:12;;;;;;;7.05;5.80;;;;;;;13.76;92.91;98809.28;4136971;28;20426;-71
2022/07/07 07:25:12;;;;;;;8.55;5.97;;;;;;;13.72;93.22;98805.66;4137138;28;20538;-71
2022/07/07 07:27:13;;;;;;;7.70;6.25;;;;;;;13.73;93.64;98799.72;4137852;28;20142;-71
2022/07/07 07:29:14;;;;;;;7.88;5.85;;;;;;;13.77;93.21;98797.75;4094903;28;1211175;-71
2022/07/07 07:31:14;;;;;;;7.43;6.43;;;;;;;13.81;93.24;98803.31;4137331;28;20273;-71
2022/07/07 07:33:16;;;;;;;6.90;5.30;;;;;;;13.89;92.32;98801.34;4138331;28;20080;-71
2022/07/07 07:35:17;;;;;;;6.07;5.20;;;;;;;13.91;91.88;98797.00;4138286;28;20101;-71
2022/07/07 07:37:17;;;;;;;6.18;5.57;;;;;;;13.95;92.65;98795.03;4137830;28;20099;-71
2022/07/07 07:39:18;;;;;;;5.85;5.25;;;;;;;13.93;90.57;98791.84;4137033;28;20045;-71
2022/07/07 07:41:19;;;;;;;5.25;4.75;;;;;;;13.93;92.33;98802.19;4137976;28;20022;-71
2022/07/07 07:43:20;;;;;;;6.03;5.45;;;;;;;13.88;92.76;98806.13;4138682;28;20026;-71
2022/07/07 07:45:21;;;;;;;5.55;5.05;;;;;;;13.86;92.78;98797.38;4138169;28;20037;-71
2022/07/07 07:47:22;;;;;;;6.75;5.20;;;;;;;13.84;92.99;98797.00;4138682;28;20060;-71
2022/07/07 07:49:22;;;;;;;7.18;5.55;;;;;;;13.82;93.07;98801.31;4136457;28;20037;-71
2022/07/07 07:51:22;;;;;;;9.23;5.10;;;;;;;13.84;92.85;98802.56;4137412;28;20030;-71
2022/07/07 07:53:23;;;;;;;7.63;5.18;;;;;;;13.83;94.07;98797.38;4138102;28;20481;-71
2022/07/07 07:55:24;;;;;;;8.13;5.10;;;;;;;13.77;94.18;98797.75;4136835;28;20518;-70
2022/07/07 07:57:24;;;;;;;6.85;5.20;;;;;;;13.81;94.30;98806.09;4138095;28;20646;-71
2022/07/07 07:59:25;;;;;;;5.28;4.70;;;;;;;13.78;93.80;98793.78;4136166;28;20390;-71
2022/07/07 08:01:25;;;;;;;6.13;4.00;;;;;;;13.81;94.49;98796.97;4137906;28;20309;-71
2022/07/07 08:03:25;;;;;;;4.40;4.00;;;;;;;13.83;94.79;98802.94;4136268;28;20454;-71
2022/07/07 08:05:26;;;;;;;7.13;4.30;;;;;;;13.76;94.71;98793.38;4138538;28;20029;-70
2022/07/07 08:07:26;;;;;;;6.43;4.55;;;;;;;13.69;95.72;98801.69;4137723;28;20026;-71
2022/07/07 08:09:27;;;;;;;5.38;4.13;;;;;;;13.68;97.08;98804.88;4136964;28;20363;-71
2022/07/07 08:11:27;;;;;;;4.32;3.92;;;;;;;13.68;97.05;98799.31;4137953;28;20377;-70
2022/07/07 08:13:27;;;;;;;10.02;5.80;;;;;;;13.60;96.00;98789.34;4137858;28;20488;-71
2022/07/07 08:15:28;;;;;;;4.72;3.92;;;;;;;13.63;97.36;98808.00;4136867;28;20034;-71
2022/07/07 08:17:28;;;;;;;4.88;4.35;;;;;;;13.64;95.93;98796.50;4137040;28;20521;-71
2022/07/07 08:19:28;;;;;;;4.82;4.15;;;;;;;13.68;97.31;98802.09;4137222;28;20036;-71
2022/07/07 08:21:29;;;;;;;5.93;4.05;;;;;;;13.65;97.71;98797.28;4138296;28;20255;-71
2022/07/07 08:23:29;;;;;;;5.75;5.00;;;;;;;13.63;97.24;98788.56;4136922;28;20030;-71
2022/07/07 08:25:30;;;;;;;7.18;4.90;;;;;;;13.67;97.79;98778.25;4137416;28;20103;-71
2022/07/07 08:27:31;;;;;;;5.53;4.57;;;;;;;13.68;98.18;98774.28;4137394;28;20404;-71
2022/07/07 08:29:31;;;;;;;5.75;3.95;;;;;;;13.72;95.99;98781.44;4136228;28;20048;-70
2022/07/07 08:31:32;;;;;;;4.43;3.70;;;;;;;13.78;96.30;98776.31;4136810;28;20425;-71
2022/07/07 08:33:33;;;;;;;4.03;3.40;;;;;;;13.87;96.44;98770.38;4137081;28;20045;-71
2022/07/07 08:35:33;;;;;;;3.20;2.90;;;;;;;13.91;95.87;98766.41;4137522;28;20033;-71
2022/07/07 08:37:34;;;;;;;3.38;2.95;;;;;;;13.93;96.21;98769.59;4135910;28;20045;-71
2022/07/07 08:39:34;;;;;;;3.47;3.17;;;;;;;13.99;95.83;98772.81;4136796;28;20058;-71
2022/07/07 08:41:35;;;;;;;3.67;3.30;;;;;;;14.08;95.85;98776.00;4137575;28;20434;-71
2022/07/07 08:43:35;;;;;;;5.95;3.25;;;;;;;14.12;97.06;98776.78;4135882;28;20193;-71
2022/07/07 08:45:35;;;;;;;3.17;2.88;;;;;;;14.18;94.48;98779.97;4137315;28;20026;-71
2022/07/07 08:47:36;;;;;;;3.05;2.80;;;;;;;14.17;95.54;98773.63;4137535;28;20364;-71
2022/07/07 08:49:36;;;;;;;5.43;3.08;;;;;;;14.20;95.47;98774.81;4135020;28;20497;-71
2022/07/07 08:51:41;;;;;;;3.92;2.70;;;;;;;14.23;94.57;98776.78;4135619;28;20026;-70
2022/07/07 08:53:44;;;;;;;3.42;2.85;;;;;;;14.22;94.18;98770.44;4137677;28;20040;-71
2022/07/07 08:55:47;;;;;;;4.65;3.33;;;;;;;14.31;94.08;98775.63;4136332;28;20069;-71
2022/07/07 08:57:51;;;;;;;4.43;3.45;;;;;;;14.34;95.35;98764.50;4136732;28;20117;-71
2022/07/07 08:59:56;;;;;;;4.55;3.60;;;;;;;14.40;95.49;98775.22;4136231;28;20467;-71
2022/07/07 09:01:59;;;;;;;7.63;4.07;;;;;;;14.40;95.49;98776.06;4137305;28;20038;-70
2022/07/07 09:04:00;;;;;;;5.88;4.57;;;;;;;14.39;96.10;98777.22;4135998;28;20030;-71
2022/07/07 09:06:02;;;;;;;6.20;4.65;;;;;;;14.44;96.24;98781.59;4137796;28;20355;-71
2022/07/07 09:08:19;;;;;;;6.70;4.30;;;;;;;14.43;93.84;98772.47;4136877;28;20167;-71
2022/07/07 09:10:34;;;;;;;5.45;4.82;;;;;;;14.43;95.25;98783.59;4136241;28;20033;-71
2022/07/07 09:12:34;;;;;;;8.65;4.78;;;;;;;14.45;96.18;98780.41;4137202;28;20221;-70
2022/07/07 09:14:37;;;;;;;6.15;4.55;;;;;;;14.44;94.91;98785.19;4137057;28;20034;-71
2022/07/07 09:16:37;;;;;;;;;;;;;;;14.48;95.24;98780.47;4137542;28;20177;-71
2022/07/07 09:18:39;;;;;;;7.45;5.28;;;;;;;14.47;95.83;98776.06;4136126;28;20711;-71
2022/07/07 09:20:40;;;;;;;6.40;5.20;;;;;;;14.49;95.15;98790.41;4136536;28;20034;-70
2022/07/07 09:22:45;;;;;;;6.40;5.50;;;;;;;14.54;96.61;98791.97;4136800;28;20042;-70
2022/07/07 09:24:55;;;;;;;7.55;5.45;;;;;;;14.58;96.21;98778.88;4136143;28;20034;-70
2022/07/07 09:26:56;;;;;;;8.48;7.15;;;;;;;14.67;95.86;98782.06;4135311;28;20248;-71
2022/07/07 09:28:58;;;;;;;6.15;5.55;;;;;;;14.74;93.57;98781.25;4135497;28;20041;-70